sensor_id;sensor_type;location;lat;lon;timestamp;P1;durP1;ratioP1;P2;durP2;ratioP2
3873;SDS011;1952;50.872;6.692;2023-11-22T00:00:33;10.80;;;9.03;;
3873;SDS011;1952;50.872;6.692;2023-11-22T00:03:01;10.60;;;9.43;;
3873;SDS011;1952;50.872;6.692;2023-11-22T00:05:30;12.90;;;9.80;;
3873;SDS011;1952;50.872;6.692;2023-11-22T00:07:58;12.80;;;10.93;;
3873;SDS011;1952;50.872;6.692;2023-11-22T00:10:26;12.13;;;9.53;;
3873;SDS011;1952;50.872;6.692;2023-11-22T00:12:55;13.97;;;8.87;;
3873;SDS011;1952;50.872;6.692;2023-11-22T00:15:26;12.90;;;9.93;;
3873;SDS011;1952;50.872;6.692;2023-11-22T00:17:54;13.83;;;9.93;;
3873;SDS011;1952;50.872;6.692;2023-11-22T00:20:24;13.37;;;9.73;;
3873;SDS011;1952;50.872;6.692;2023-11-22T00:22:52;13.40;;;10.20;;
3873;SDS011;1952;50.872;6.692;2023-11-22T00:25:20;11.13;;;9.20;;
3873;SDS011;1952;50.872;6.692;2023-11-22T00:27:48;12.20;;;9.00;;
3873;SDS011;1952;50.872;6.692;2023-11-22T00:30:16;12.07;;;9.50;;
3873;SDS011;1952;50.872;6.692;2023-11-22T00:32:46;11.07;;;8.70;;
3873;SDS011;1952;50.872;6.692;2023-11-22T00:35:14;13.77;;;10.00;;
3873;SDS011;1952;50.872;6.692;2023-11-22T00:37:42;10.97;;;9.77;;
3873;SDS011;1952;50.872;6.692;2023-11-22T00:40:11;14.00;;;10.00;;
3873;SDS011;1952;50.872;6.692;2023-11-22T00:42:39;11.70;;;10.43;;
3873;SDS011;1952;50.872;6.692;2023-11-22T00:45:09;12.27;;;8.97;;
3873;SDS011;1952;50.872;6.692;2023-11-22T00:47:38;13.47;;;9.73;;
3873;SDS011;1952;50.872;6.692;2023-11-22T00:50:08;10.33;;;8.60;;
3873;SDS011;1952;50.872;6.692;2023-11-22T00:52:36;11.00;;;8.67;;
3873;SDS011;1952;50.872;6.692;2023-11-22T00:55:05;14.10;;;9.67;;
3873;SDS011;1952;50.872;6.692;2023-11-22T00:57:33;12.13;;;9.83;;
3873;SDS011;1952;50.872;6.692;2023-11-22T01:00:03;16.33;;;9.70;;
3873;SDS011;1952;50.872;6.692;2023-11-22T01:02:34;12.97;;;11.20;;
3873;SDS011;1952;50.872;6.692;2023-11-22T01:05:05;13.27;;;10.67;;
3873;SDS011;1952;50.872;6.692;2023-11-22T01:07:37;16.23;;;10.90;;
3873;SDS011;1952;50.872;6.692;2023-11-22T01:44:04;11.20;;;9.57;;
3873;SDS011;1952;50.872;6.692;2023-11-22T01:46:32;15.70;;;10.60;;
3873;SDS011;1952;50.872;6.692;2023-11-22T01:49:01;11.77;;;9.73;;
3873;SDS011;1952;50.872;6.692;2023-11-22T01:51:29;15.50;;;9.83;;
3873;SDS011;1952;50.872;6.692;2023-11-22T01:53:58;13.40;;;10.90;;
3873;SDS011;1952;50.872;6.692;2023-11-22T01:56:27;13.20;;;11.20;;
3873;SDS011;1952;50.872;6.692;2023-11-22T01:58:56;12.20;;;9.27;;
3873;SDS011;1952;50.872;6.692;2023-11-22T02:01:27;11.70;;;9.33;;
3873;SDS011;1952;50.872;6.692;2023-11-22T02:03:55;13.93;;;10.53;;
3873;SDS011;1952;50.872;6.692;2023-11-22T02:06:24;14.30;;;11.47;;
3873;SDS011;1952;50.872;6.692;2023-11-22T02:08:52;13.00;;;9.43;;
3873;SDS011;1952;50.872;6.692;2023-11-22T02:11:20;14.97;;;11.93;;
3873;SDS011;1952;50.872;6.692;2023-11-22T02:13:48;13.90;;;10.23;;
3873;SDS011;1952;50.872;6.692;2023-11-22T02:16:17;15.43;;;10.93;;
3873;SDS011;1952;50.872;6.692;2023-11-22T02:18:47;13.07;;;11.67;;
3873;SDS011;1952;50.872;6.692;2023-11-22T02:21:16;13.63;;;10.70;;
3873;SDS011;1952;50.872;6.692;2023-11-22T02:23:46;13.80;;;10.43;;
3873;SDS011;1952;50.872;6.692;2023-11-22T02:26:14;14.27;;;11.87;;
3873;SDS011;1952;50.872;6.692;2023-11-22T02:28:44;15.63;;;11.67;;
3873;SDS011;1952;50.872;6.692;2023-11-22T02:31:12;14.57;;;9.70;;
3873;SDS011;1952;50.872;6.692;2023-11-22T02:33:40;12.33;;;10.13;;
3873;SDS011;1952;50.872;6.692;2023-11-22T02:36:09;13.80;;;9.67;;
3873;SDS011;1952;50.872;6.692;2023-11-22T02:38:39;14.40;;;10.30;;
3873;SDS011;1952;50.872;6.692;2023-11-22T02:41:09;11.73;;;9.70;;
3873;SDS011;1952;50.872;6.692;2023-11-22T02:43:37;16.70;;;10.90;;
3873;SDS011;1952;50.872;6.692;2023-11-22T02:46:06;12.27;;;9.50;;
3873;SDS011;1952;50.872;6.692;2023-11-22T02:48:34;12.63;;;9.33;;
3873;SDS011;1952;50.872;6.692;2023-11-22T02:51:03;11.77;;;8.93;;
3873;SDS011;1952;50.872;6.692;2023-11-22T02:53:33;11.27;;;10.07;;
3873;SDS011;1952;50.872;6.692;2023-11-22T02:56:01;12.00;;;10.70;;
3873;SDS011;1952;50.872;6.692;2023-11-22T02:58:31;10.10;;;8.93;;
3873;SDS011;1952;50.872;6.692;2023-11-22T03:00:59;10.43;;;8.10;;
3873;SDS011;1952;50.872;6.692;2023-11-22T03:03:27;14.30;;;10.30;;
3873;SDS011;1952;50.872;6.692;2023-11-22T03:05:56;9.70;;;8.13;;
3873;SDS011;1952;50.872;6.692;2023-11-22T03:08:24;11.53;;;9.43;;
3873;SDS011;1952;50.872;6.692;2023-11-22T03:10:52;10.40;;;8.70;;
3873;SDS011;1952;50.872;6.692;2023-11-22T03:13:20;10.70;;;9.20;;
3873;SDS011;1952;50.872;6.692;2023-11-22T03:15:50;11.40;;;9.70;;
3873;SDS011;1952;50.872;6.692;2023-11-22T03:18:18;13.60;;;8.20;;
3873;SDS011;1952;50.872;6.692;2023-11-22T03:20:47;12.10;;;9.77;;
3873;SDS011;1952;50.872;6.692;2023-11-22T03:23:20;10.03;;;8.67;;
3873;SDS011;1952;50.872;6.692;2023-11-22T03:25:49;12.23;;;9.43;;
3873;SDS011;1952;50.872;6.692;2023-11-22T03:28:17;12.40;;;10.23;;
3873;SDS011;1952;50.872;6.692;2023-11-22T03:30:45;10.30;;;9.20;;
3873;SDS011;1952;50.872;6.692;2023-11-22T03:33:15;12.00;;;9.97;;
3873;SDS011;1952;50.872;6.692;2023-11-22T03:35:43;14.27;;;9.73;;
3873;SDS011;1952;50.872;6.692;2023-11-22T03:38:12;8.93;;;8.03;;
3873;SDS011;1952;50.872;6.692;2023-11-22T03:40:40;13.47;;;9.87;;
3873;SDS011;1952;50.872;6.692;2023-11-22T03:43:08;11.23;;;8.40;;
3873;SDS011;1952;50.872;6.692;2023-11-22T03:45:37;11.20;;;7.50;;
3873;SDS011;1952;50.872;6.692;2023-11-22T03:48:06;13.20;;;10.03;;
3873;SDS011;1952;50.872;6.692;2023-11-22T03:50:36;11.50;;;8.80;;
3873;SDS011;1952;50.872;6.692;2023-11-22T03:53:04;14.43;;;9.67;;
3873;SDS011;1952;50.872;6.692;2023-11-22T03:55:32;10.83;;;8.43;;
3873;SDS011;1952;50.872;6.692;2023-11-22T03:58:00;11.10;;;9.50;;
3873;SDS011;1952;50.872;6.692;2023-11-22T04:00:29;15.00;;;9.90;;
3873;SDS011;1952;50.872;6.692;2023-11-22T04:02:58;15.03;;;11.23;;
3873;SDS011;1952;50.872;6.692;2023-11-22T04:05:28;12.53;;;10.00;;
3873;SDS011;1952;50.872;6.692;2023-11-22T04:07:57;11.33;;;9.50;;
3873;SDS011;1952;50.872;6.692;2023-11-22T04:10:26;15.40;;;10.53;;
3873;SDS011;1952;50.872;6.692;2023-11-22T04:12:54;13.83;;;10.13;;
3873;SDS011;1952;50.872;6.692;2023-11-22T04:15:22;13.90;;;9.63;;
3873;SDS011;1952;50.872;6.692;2023-11-22T04:17:52;11.50;;;9.80;;
3873;SDS011;1952;50.872;6.692;2023-11-22T04:23:28;14.70;;;11.40;;
3873;SDS011;1952;50.872;6.692;2023-11-22T04:25:56;13.53;;;11.70;;
3873;SDS011;1952;50.872;6.692;2023-11-22T04:28:42;14.60;;;10.30;;
3873;SDS011;1952;50.872;6.692;2023-11-22T04:31:38;16.83;;;10.90;;
3873;SDS011;1952;50.872;6.692;2023-11-22T04:34:06;20.13;;;12.03;;
3873;SDS011;1952;50.872;6.692;2023-11-22T04:36:35;12.43;;;9.83;;
3873;SDS011;1952;50.872;6.692;2023-11-22T04:39:06;13.83;;;10.10;;
3873;SDS011;1952;50.872;6.692;2023-11-22T04:41:34;13.47;;;10.27;;
3873;SDS011;1952;50.872;6.692;2023-11-22T04:44:02;16.13;;;11.60;;
3873;SDS011;1952;50.872;6.692;2023-11-22T04:46:30;14.03;;;10.37;;
3873;SDS011;1952;50.872;6.692;2023-11-22T04:48:58;16.30;;;11.77;;
3873;SDS011;1952;50.872;6.692;2023-11-22T04:53:58;17.30;;;12.33;;
3873;SDS011;1952;50.872;6.692;2023-11-22T05:02:56;13.80;;;10.03;;
3873;SDS011;1952;50.872;6.692;2023-11-22T05:05:25;17.77;;;12.37;;
3873;SDS011;1952;50.872;6.692;2023-11-22T05:07:53;17.70;;;11.83;;
3873;SDS011;1952;50.872;6.692;2023-11-22T05:10:21;17.30;;;11.50;;
3873;SDS011;1952;50.872;6.692;2023-11-22T05:12:50;19.90;;;13.00;;
3873;SDS011;1952;50.872;6.692;2023-11-22T05:15:18;17.20;;;12.77;;
3873;SDS011;1952;50.872;6.692;2023-11-22T05:17:46;14.80;;;10.10;;
3873;SDS011;1952;50.872;6.692;2023-11-22T05:20:16;18.10;;;12.43;;
3873;SDS011;1952;50.872;6.692;2023-11-22T05:22:45;22.03;;;12.60;;
3873;SDS011;1952;50.872;6.692;2023-11-22T05:25:13;22.30;;;13.63;;
3873;SDS011;1952;50.872;6.692;2023-11-22T05:27:41;18.43;;;13.13;;
3873;SDS011;1952;50.872;6.692;2023-11-22T05:30:10;17.00;;;11.90;;
3873;SDS011;1952;50.872;6.692;2023-11-22T05:32:39;19.00;;;12.70;;
3873;SDS011;1952;50.872;6.692;2023-11-22T05:35:07;16.33;;;11.07;;
3873;SDS011;1952;50.872;6.692;2023-11-22T05:37:37;14.83;;;10.47;;
3873;SDS011;1952;50.872;6.692;2023-11-22T05:40:06;17.13;;;12.20;;
3873;SDS011;1952;50.872;6.692;2023-11-22T05:42:36;21.00;;;14.40;;
3873;SDS011;1952;50.872;6.692;2023-11-22T05:45:05;17.63;;;12.93;;
3873;SDS011;1952;50.872;6.692;2023-11-22T05:47:34;18.80;;;12.13;;
3873;SDS011;1952;50.872;6.692;2023-11-22T05:50:02;16.47;;;11.20;;
3873;SDS011;1952;50.872;6.692;2023-11-22T05:52:31;17.00;;;11.07;;
3873;SDS011;1952;50.872;6.692;2023-11-22T05:55:01;16.70;;;11.33;;
3873;SDS011;1952;50.872;6.692;2023-11-22T05:57:30;13.67;;;10.63;;
3873;SDS011;1952;50.872;6.692;2023-11-22T05:59:58;16.93;;;11.57;;
3873;SDS011;1952;50.872;6.692;2023-11-22T06:02:27;17.73;;;11.83;;
3873;SDS011;1952;50.872;6.692;2023-11-22T06:05:23;18.33;;;12.00;;
3873;SDS011;1952;50.872;6.692;2023-11-22T06:08:17;15.17;;;11.70;;
3873;SDS011;1952;50.872;6.692;2023-11-22T06:49:28;17.47;;;11.43;;
3873;SDS011;1952;50.872;6.692;2023-11-22T06:52:03;16.00;;;11.60;;
3873;SDS011;1952;50.872;6.692;2023-11-22T06:54:34;16.83;;;11.90;;
3873;SDS011;1952;50.872;6.692;2023-11-22T06:57:04;22.07;;;13.80;;
3873;SDS011;1952;50.872;6.692;2023-11-22T06:59:33;16.20;;;11.30;;
3873;SDS011;1952;50.872;6.692;2023-11-22T07:02:01;20.73;;;13.17;;
3873;SDS011;1952;50.872;6.692;2023-11-22T07:04:33;14.83;;;11.80;;
3873;SDS011;1952;50.872;6.692;2023-11-22T07:07:04;18.97;;;11.00;;
3873;SDS011;1952;50.872;6.692;2023-11-22T07:09:34;16.10;;;11.27;;
3873;SDS011;1952;50.872;6.692;2023-11-22T07:12:06;17.63;;;13.00;;
3873;SDS011;1952;50.872;6.692;2023-11-22T07:14:41;21.07;;;13.10;;
3873;SDS011;1952;50.872;6.692;2023-11-22T07:17:42;15.33;;;12.63;;
3873;SDS011;1952;50.872;6.692;2023-11-22T07:20:14;17.53;;;11.33;;
3873;SDS011;1952;50.872;6.692;2023-11-22T07:22:48;18.67;;;11.50;;
3873;SDS011;1952;50.872;6.692;2023-11-22T07:25:23;15.13;;;11.20;;
3873;SDS011;1952;50.872;6.692;2023-11-22T07:28:03;15.40;;;13.17;;
3873;SDS011;1952;50.872;6.692;2023-11-22T07:30:32;16.30;;;13.17;;
3873;SDS011;1952;50.872;6.692;2023-11-22T07:33:17;16.13;;;12.60;;
3873;SDS011;1952;50.872;6.692;2023-11-22T07:35:51;14.90;;;12.50;;
3873;SDS011;1952;50.872;6.692;2023-11-22T07:38:21;13.07;;;10.70;;
3873;SDS011;1952;50.872;6.692;2023-11-22T07:40:53;12.40;;;9.80;;
3873;SDS011;1952;50.872;6.692;2023-11-22T07:43:36;14.47;;;11.53;;
3873;SDS011;1952;50.872;6.692;2023-11-22T07:46:06;11.63;;;10.40;;
3873;SDS011;1952;50.872;6.692;2023-11-22T07:48:40;10.77;;;9.47;;
3873;SDS011;1952;50.872;6.692;2023-11-22T07:51:26;12.70;;;11.20;;
3873;SDS011;1952;50.872;6.692;2023-11-22T07:53:57;10.80;;;9.13;;
3873;SDS011;1952;50.872;6.692;2023-11-22T07:56:32;12.77;;;9.93;;
3873;SDS011;1952;50.872;6.692;2023-11-22T07:59:04;11.60;;;9.30;;
3873;SDS011;1952;50.872;6.692;2023-11-22T08:01:34;12.93;;;11.03;;
3873;SDS011;1952;50.872;6.692;2023-11-22T08:04:03;10.70;;;9.60;;
3873;SDS011;1952;50.872;6.692;2023-11-22T08:06:47;10.83;;;9.83;;
3873;SDS011;1952;50.872;6.692;2023-11-22T08:09:18;12.93;;;11.63;;
3873;SDS011;1952;50.872;6.692;2023-11-22T08:11:47;10.37;;;9.43;;
3873;SDS011;1952;50.872;6.692;2023-11-22T08:14:16;11.13;;;9.50;;
3873;SDS011;1952;50.872;6.692;2023-11-22T08:16:51;11.57;;;10.47;;
3873;SDS011;1952;50.872;6.692;2023-11-22T08:19:22;10.40;;;9.37;;
3873;SDS011;1952;50.872;6.692;2023-11-22T08:22:07;12.10;;;9.87;;
3873;SDS011;1952;50.872;6.692;2023-11-22T08:24:35;11.27;;;9.57;;
3873;SDS011;1952;50.872;6.692;2023-11-22T08:27:05;12.03;;;10.90;;
3873;SDS011;1952;50.872;6.692;2023-11-22T08:29:35;10.67;;;9.77;;
3873;SDS011;1952;50.872;6.692;2023-11-22T08:32:32;11.73;;;10.47;;
3873;SDS011;1952;50.872;6.692;2023-11-22T08:35:03;11.67;;;10.57;;
3873;SDS011;1952;50.872;6.692;2023-11-22T08:37:39;11.17;;;10.03;;
3873;SDS011;1952;50.872;6.692;2023-11-22T08:40:40;12.00;;;10.80;;
3873;SDS011;1952;50.872;6.692;2023-11-22T08:43:45;10.77;;;9.70;;
3873;SDS011;1952;50.872;6.692;2023-11-22T08:46:14;10.03;;;8.73;;
3873;SDS011;1952;50.872;6.692;2023-11-22T08:48:44;10.43;;;9.43;;
3873;SDS011;1952;50.872;6.692;2023-11-22T08:51:23;10.40;;;7.53;;
3873;SDS011;1952;50.872;6.692;2023-11-22T08:54:00;9.90;;;8.90;;
3873;SDS011;1952;50.872;6.692;2023-11-22T08:56:34;10.80;;;9.47;;
3873;SDS011;1952;50.872;6.692;2023-11-22T08:59:10;10.27;;;9.27;;
3873;SDS011;1952;50.872;6.692;2023-11-22T09:01:39;10.13;;;8.50;;
3873;SDS011;1952;50.872;6.692;2023-11-22T09:04:12;9.93;;;8.40;;
3873;SDS011;1952;50.872;6.692;2023-11-22T09:06:42;9.93;;;8.93;;
3873;SDS011;1952;50.872;6.692;2023-11-22T09:09:12;9.63;;;8.73;;
3873;SDS011;1952;50.872;6.692;2023-11-22T09:11:42;8.80;;;8.00;;
3873;SDS011;1952;50.872;6.692;2023-11-22T09:14:12;9.60;;;8.67;;
3873;SDS011;1952;50.872;6.692;2023-11-22T09:16:42;8.10;;;7.40;;
3873;SDS011;1952;50.872;6.692;2023-11-22T09:19:19;10.93;;;8.43;;
3873;SDS011;1952;50.872;6.692;2023-11-22T09:21:56;7.70;;;7.00;;
3873;SDS011;1952;50.872;6.692;2023-11-22T09:24:30;9.93;;;9.03;;
3873;SDS011;1952;50.872;6.692;2023-11-22T09:27:06;10.60;;;9.60;;
3873;SDS011;1952;50.872;6.692;2023-11-22T09:29:45;10.60;;;9.60;;
3873;SDS011;1952;50.872;6.692;2023-11-22T09:32:15;9.40;;;8.50;;
3873;SDS011;1952;50.872;6.692;2023-11-22T09:34:52;8.93;;;8.13;;
3873;SDS011;1952;50.872;6.692;2023-11-22T09:37:27;9.53;;;8.63;;
3873;SDS011;1952;50.872;6.692;2023-11-22T09:40:10;8.63;;;7.83;;
3873;SDS011;1952;50.872;6.692;2023-11-22T09:43:05;7.53;;;6.77;;
3873;SDS011;1952;50.872;6.692;2023-11-22T09:45:48;7.80;;;7.10;;
3873;SDS011;1952;50.872;6.692;2023-11-22T09:48:45;6.80;;;6.30;;
3873;SDS011;1952;50.872;6.692;2023-11-22T09:51:20;8.27;;;7.57;;
3873;SDS011;1952;50.872;6.692;2023-11-22T09:54:08;9.00;;;8.10;;
3873;SDS011;1952;50.872;6.692;2023-11-22T09:56:55;7.90;;;7.10;;
3873;SDS011;1952;50.872;6.692;2023-11-22T09:59:25;9.27;;;8.40;;
3873;SDS011;1952;50.872;6.692;2023-11-22T10:01:58;10.70;;;7.83;;
3873;SDS011;1952;50.872;6.692;2023-11-22T10:04:35;8.33;;;7.63;;
3873;SDS011;1952;50.872;6.692;2023-11-22T10:07:05;7.67;;;6.97;;
3873;SDS011;1952;50.872;6.692;2023-11-22T10:09:37;8.10;;;7.30;;
3873;SDS011;1952;50.872;6.692;2023-11-22T10:12:09;7.67;;;6.97;;
3873;SDS011;1952;50.872;6.692;2023-11-22T10:14:41;8.13;;;6.00;;
3873;SDS011;1952;50.872;6.692;2023-11-22T10:17:17;7.07;;;6.30;;
3873;SDS011;1952;50.872;6.692;2023-11-22T10:20:02;5.30;;;4.77;;
3873;SDS011;1952;50.872;6.692;2023-11-22T10:22:43;6.83;;;6.20;;
3873;SDS011;1952;50.872;6.692;2023-11-22T10:25:14;8.13;;;7.53;;
3873;SDS011;1952;50.872;6.692;2023-11-22T10:27:59;6.30;;;5.70;;
3873;SDS011;1952;50.872;6.692;2023-11-22T10:30:30;7.77;;;7.07;;
3873;SDS011;1952;50.872;6.692;2023-11-22T10:33:01;6.20;;;5.70;;
3873;SDS011;1952;50.872;6.692;2023-11-22T10:35:34;5.80;;;5.30;;
3873;SDS011;1952;50.872;6.692;2023-11-22T10:38:07;5.70;;;5.20;;
3873;SDS011;1952;50.872;6.692;2023-11-22T10:40:40;6.00;;;5.40;;
3873;SDS011;1952;50.872;6.692;2023-11-22T10:43:13;5.73;;;5.00;;
3873;SDS011;1952;50.872;6.692;2023-11-22T10:45:44;5.60;;;5.10;;
3873;SDS011;1952;50.872;6.692;2023-11-22T10:48:44;5.57;;;5.07;;
3873;SDS011;1952;50.872;6.692;2023-11-22T10:53:47;5.90;;;5.40;;
3873;SDS011;1952;50.872;6.692;2023-11-22T10:56:17;7.03;;;6.33;;
3873;SDS011;1952;50.872;6.692;2023-11-22T11:10:28;8.30;;;6.37;;
3873;SDS011;1952;50.872;6.692;2023-11-22T11:13:01;9.87;;;7.07;;
3873;SDS011;1952;50.872;6.692;2023-11-22T11:15:41;7.40;;;6.70;;
3873;SDS011;1952;50.872;6.692;2023-11-22T11:18:28;8.03;;;7.23;;
3873;SDS011;1952;50.872;6.692;2023-11-22T11:21:21;6.33;;;5.73;;
3873;SDS011;1952;50.872;6.692;2023-11-22T11:24:23;8.17;;;5.60;;
3873;SDS011;1952;50.872;6.692;2023-11-22T11:27:19;10.20;;;6.10;;
3873;SDS011;1952;50.872;6.692;2023-11-22T11:33:55;6.90;;;6.20;;
3873;SDS011;1952;50.872;6.692;2023-11-22T11:36:53;7.80;;;6.77;;
3873;SDS011;1952;50.872;6.692;2023-11-22T11:39:51;5.40;;;4.80;;
3873;SDS011;1952;50.872;6.692;2023-11-22T12:49:07;8.27;;;6.73;;
3873;SDS011;1952;50.872;6.692;2023-11-22T12:51:48;7.80;;;7.00;;
3873;SDS011;1952;50.872;6.692;2023-11-22T12:57:02;8.10;;;7.23;;
3873;SDS011;1952;50.872;6.692;2023-11-22T12:59:55;7.07;;;6.37;;
3873;SDS011;1952;50.872;6.692;2023-11-22T13:02:34;6.90;;;6.20;;
3873;SDS011;1952;50.872;6.692;2023-11-22T13:05:33;13.20;;;6.57;;
3873;SDS011;1952;50.872;6.692;2023-11-22T13:57:22;7.93;;;6.07;;
3873;SDS011;1952;50.872;6.692;2023-11-22T14:00:07;5.10;;;4.60;;
3873;SDS011;1952;50.872;6.692;2023-11-22T14:02:47;9.30;;;6.63;;
3873;SDS011;1952;50.872;6.692;2023-11-22T14:05:36;9.93;;;5.20;;
3873;SDS011;1952;50.872;6.692;2023-11-22T14:08:18;7.87;;;5.20;;
3873;SDS011;1952;50.872;6.692;2023-11-22T14:10:50;7.13;;;5.77;;
3873;SDS011;1952;50.872;6.692;2023-11-22T14:13:23;6.90;;;5.10;;
3873;SDS011;1952;50.872;6.692;2023-11-22T14:16:07;5.83;;;4.40;;
3873;SDS011;1952;50.872;6.692;2023-11-22T14:18:50;5.83;;;4.77;;
3873;SDS011;1952;50.872;6.692;2023-11-22T14:21:26;5.10;;;4.60;;
3873;SDS011;1952;50.872;6.692;2023-11-22T14:23:57;5.03;;;4.53;;
3873;SDS011;1952;50.872;6.692;2023-11-22T14:26:41;5.60;;;4.50;;
3873;SDS011;1952;50.872;6.692;2023-11-22T14:29:32;5.93;;;4.30;;
3873;SDS011;1952;50.872;6.692;2023-11-22T14:32:01;4.60;;;4.20;;
3873;SDS011;1952;50.872;6.692;2023-11-22T14:34:33;4.87;;;4.30;;
3873;SDS011;1952;50.872;6.692;2023-11-22T14:37:07;5.90;;;4.67;;
3873;SDS011;1952;50.872;6.692;2023-11-22T14:39:57;5.00;;;4.40;;
3873;SDS011;1952;50.872;6.692;2023-11-22T14:42:32;6.83;;;5.17;;
3873;SDS011;1952;50.872;6.692;2023-11-22T14:47:48;5.10;;;4.60;;
3873;SDS011;1952;50.872;6.692;2023-11-22T14:50:44;10.23;;;5.43;;
3873;SDS011;1952;50.872;6.692;2023-11-22T14:53:28;7.17;;;4.90;;
3873;SDS011;1952;50.872;6.692;2023-11-22T14:56:13;7.50;;;4.70;;
3873;SDS011;1952;50.872;6.692;2023-11-22T14:59:05;3.83;;;3.53;;
3873;SDS011;1952;50.872;6.692;2023-11-22T15:07:28;6.57;;;5.37;;
3873;SDS011;1952;50.872;6.692;2023-11-22T15:10:25;8.33;;;5.33;;
3873;SDS011;1952;50.872;6.692;2023-11-22T15:13:22;6.23;;;4.83;;
3873;SDS011;1952;50.872;6.692;2023-11-22T15:16:18;7.53;;;5.60;;
3873;SDS011;1952;50.872;6.692;2023-11-22T15:19:14;12.07;;;7.10;;
3873;SDS011;1952;50.872;6.692;2023-11-22T15:22:11;11.97;;;8.10;;
3873;SDS011;1952;50.872;6.692;2023-11-22T15:28:11;7.53;;;5.47;;
3873;SDS011;1952;50.872;6.692;2023-11-22T15:31:07;7.83;;;5.40;;
3873;SDS011;1952;50.872;6.692;2023-11-22T15:33:59;8.40;;;7.60;;
3873;SDS011;1952;50.872;6.692;2023-11-22T15:36:39;7.20;;;5.10;;
3873;SDS011;1952;50.872;6.692;2023-11-22T15:39:35;8.20;;;6.20;;
3873;SDS011;1952;50.872;6.692;2023-11-22T15:42:26;5.33;;;4.70;;
3873;SDS011;1952;50.872;6.692;2023-11-22T15:45:23;7.10;;;5.50;;
3873;SDS011;1952;50.872;6.692;2023-11-22T15:48:19;9.43;;;5.57;;
3873;SDS011;1952;50.872;6.692;2023-11-22T15:51:27;6.90;;;5.10;;
3873;SDS011;1952;50.872;6.692;2023-11-22T15:54:05;7.83;;;5.43;;
3873;SDS011;1952;50.872;6.692;2023-11-22T15:57:01;8.97;;;5.60;;
3873;SDS011;1952;50.872;6.692;2023-11-22T16:54:03;10.73;;;7.70;;
3873;SDS011;1952;50.872;6.692;2023-11-22T16:56:31;11.80;;;7.97;;
3873;SDS011;1952;50.872;6.692;2023-11-22T16:59:03;10.70;;;8.23;;
3873;SDS011;1952;50.872;6.692;2023-11-22T17:01:45;11.67;;;7.70;;
3873;SDS011;1952;50.872;6.692;2023-11-22T17:04:15;10.13;;;7.83;;
3873;SDS011;1952;50.872;6.692;2023-11-22T17:06:43;10.47;;;8.33;;
3873;SDS011;1952;50.872;6.692;2023-11-22T17:09:13;10.00;;;7.00;;
3873;SDS011;1952;50.872;6.692;2023-11-22T17:11:42;15.77;;;8.90;;
3873;SDS011;1952;50.872;6.692;2023-11-22T17:14:14;14.27;;;9.23;;
3873;SDS011;1952;50.872;6.692;2023-11-22T17:16:46;9.33;;;8.00;;
3873;SDS011;1952;50.872;6.692;2023-11-22T17:19:26;12.27;;;7.40;;
3873;SDS011;1952;50.872;6.692;2023-11-22T17:21:55;8.93;;;8.03;;
3873;SDS011;1952;50.872;6.692;2023-11-22T17:27:24;15.13;;;9.80;;
3873;SDS011;1952;50.872;6.692;2023-11-22T17:29:57;13.10;;;8.83;;
3873;SDS011;1952;50.872;6.692;2023-11-22T17:32:29;11.00;;;7.67;;
3873;SDS011;1952;50.872;6.692;2023-11-22T17:35:02;7.17;;;6.30;;
3873;SDS011;1952;50.872;6.692;2023-11-22T17:37:30;11.57;;;7.10;;
3873;SDS011;1952;50.872;6.692;2023-11-22T17:39:59;9.27;;;7.70;;
3873;SDS011;1952;50.872;6.692;2023-11-22T17:42:30;9.60;;;8.47;;
3873;SDS011;1952;50.872;6.692;2023-11-22T17:45:00;10.20;;;7.97;;
3873;SDS011;1952;50.872;6.692;2023-11-22T17:47:29;8.50;;;7.30;;
3873;SDS011;1952;50.872;6.692;2023-11-22T17:49:59;8.97;;;5.43;;
3873;SDS011;1952;50.872;6.692;2023-11-22T17:52:29;7.00;;;6.30;;
3873;SDS011;1952;50.872;6.692;2023-11-22T17:54:58;9.40;;;7.67;;
3873;SDS011;1952;50.872;6.692;2023-11-22T17:57:31;11.80;;;8.27;;
3873;SDS011;1952;50.872;6.692;2023-11-22T17:59:59;9.80;;;7.43;;
3873;SDS011;1952;50.872;6.692;2023-11-22T18:02:28;12.90;;;7.87;;
3873;SDS011;1952;50.872;6.692;2023-11-22T18:04:57;8.17;;;6.97;;
3873;SDS011;1952;50.872;6.692;2023-11-22T18:07:31;9.07;;;6.70;;
3873;SDS011;1952;50.872;6.692;2023-11-22T18:10:00;12.10;;;7.50;;
3873;SDS011;1952;50.872;6.692;2023-11-22T18:12:28;8.60;;;6.70;;
3873;SDS011;1952;50.872;6.692;2023-11-22T18:18:09;9.80;;;8.07;;
3873;SDS011;1952;50.872;6.692;2023-11-22T18:20:38;14.17;;;7.80;;
3873;SDS011;1952;50.872;6.692;2023-11-22T18:23:09;11.73;;;8.00;;
3873;SDS011;1952;50.872;6.692;2023-11-22T18:25:57;8.40;;;7.50;;
3873;SDS011;1952;50.872;6.692;2023-11-22T18:28:26;8.73;;;7.23;;
3873;SDS011;1952;50.872;6.692;2023-11-22T18:30:56;7.60;;;6.90;;
3873;SDS011;1952;50.872;6.692;2023-11-22T18:33:25;9.93;;;7.70;;
3873;SDS011;1952;50.872;6.692;2023-11-22T18:35:55;12.03;;;8.03;;
3873;SDS011;1952;50.872;6.692;2023-11-22T18:38:23;10.20;;;8.40;;
3873;SDS011;1952;50.872;6.692;2023-11-22T18:40:53;13.87;;;9.07;;
3873;SDS011;1952;50.872;6.692;2023-11-22T18:43:26;9.97;;;7.70;;
3873;SDS011;1952;50.872;6.692;2023-11-22T18:45:55;11.50;;;8.90;;
3873;SDS011;1952;50.872;6.692;2023-11-22T18:48:31;12.40;;;9.60;;
3873;SDS011;1952;50.872;6.692;2023-11-22T18:51:00;14.30;;;9.53;;
3873;SDS011;1952;50.872;6.692;2023-11-22T18:53:53;11.63;;;8.60;;
3873;SDS011;1952;50.872;6.692;2023-11-22T18:56:21;9.93;;;8.27;;
3873;SDS011;1952;50.872;6.692;2023-11-22T18:58:50;10.80;;;8.30;;
3873;SDS011;1952;50.872;6.692;2023-11-22T19:01:19;11.60;;;8.67;;
3873;SDS011;1952;50.872;6.692;2023-11-22T19:03:49;8.63;;;7.73;;
3873;SDS011;1952;50.872;6.692;2023-11-22T19:06:17;11.50;;;8.70;;
3873;SDS011;1952;50.872;6.692;2023-11-22T19:08:46;14.03;;;9.60;;
3873;SDS011;1952;50.872;6.692;2023-11-22T19:11:15;12.10;;;8.20;;
3873;SDS011;1952;50.872;6.692;2023-11-22T19:13:45;10.70;;;8.90;;
3873;SDS011;1952;50.872;6.692;2023-11-22T19:16:15;10.83;;;7.00;;
3873;SDS011;1952;50.872;6.692;2023-11-22T19:18:44;10.90;;;8.83;;
3873;SDS011;1952;50.872;6.692;2023-11-22T19:21:17;9.27;;;8.03;;
3873;SDS011;1952;50.872;6.692;2023-11-22T19:23:48;10.47;;;8.63;;
3873;SDS011;1952;50.872;6.692;2023-11-22T19:26:19;7.87;;;7.07;;
3873;SDS011;1952;50.872;6.692;2023-11-22T19:28:48;12.40;;;8.80;;
3873;SDS011;1952;50.872;6.692;2023-11-22T19:31:17;16.53;;;8.90;;
3873;SDS011;1952;50.872;6.692;2023-11-22T19:33:50;11.10;;;7.70;;
3873;SDS011;1952;50.872;6.692;2023-11-22T19:36:20;11.83;;;8.63;;
3873;SDS011;1952;50.872;6.692;2023-11-22T19:38:48;12.60;;;9.83;;
3873;SDS011;1952;50.872;6.692;2023-11-22T19:41:23;13.30;;;10.03;;
3873;SDS011;1952;50.872;6.692;2023-11-22T19:44:08;10.87;;;9.43;;
3873;SDS011;1952;50.872;6.692;2023-11-22T19:46:36;11.27;;;8.13;;
3873;SDS011;1952;50.872;6.692;2023-11-22T19:49:09;9.03;;;7.77;;
3873;SDS011;1952;50.872;6.692;2023-11-22T19:51:41;10.40;;;6.87;;
3873;SDS011;1952;50.872;6.692;2023-11-22T19:54:11;8.30;;;6.80;;
3873;SDS011;1952;50.872;6.692;2023-11-22T19:56:41;11.70;;;7.63;;
3873;SDS011;1952;50.872;6.692;2023-11-22T19:59:10;8.30;;;6.83;;
3873;SDS011;1952;50.872;6.692;2023-11-22T20:02:06;8.03;;;7.20;;
3873;SDS011;1952;50.872;6.692;2023-11-22T20:05:02;10.30;;;8.57;;
3873;SDS011;1952;50.872;6.692;2023-11-22T20:07:38;10.03;;;6.70;;
3873;SDS011;1952;50.872;6.692;2023-11-22T20:10:08;8.67;;;7.50;;
3873;SDS011;1952;50.872;6.692;2023-11-22T20:12:37;9.17;;;8.23;;
3873;SDS011;1952;50.872;6.692;2023-11-22T20:15:08;13.30;;;8.43;;
3873;SDS011;1952;50.872;6.692;2023-11-22T20:17:38;8.63;;;7.70;;
3873;SDS011;1952;50.872;6.692;2023-11-22T20:20:09;16.43;;;10.90;;
3873;SDS011;1952;50.872;6.692;2023-11-22T20:22:42;11.20;;;8.87;;
3873;SDS011;1952;50.872;6.692;2023-11-22T20:25:11;11.73;;;8.37;;
3873;SDS011;1952;50.872;6.692;2023-11-22T20:27:40;17.20;;;12.23;;
3873;SDS011;1952;50.872;6.692;2023-11-22T20:30:09;10.23;;;8.90;;
3873;SDS011;1952;50.872;6.692;2023-11-22T20:32:38;11.00;;;9.47;;
3873;SDS011;1952;50.872;6.692;2023-11-22T20:35:07;13.50;;;10.23;;
3873;SDS011;1952;50.872;6.692;2023-11-22T20:37:36;10.03;;;8.83;;